createdAt,value
2019-02-21T00:00:01.292Z,0.00
2019-02-21T00:01:01.275Z,0.00
2019-02-21T00:02:01.284Z,0.00
2019-02-21T00:03:01.284Z,0.00
2019-02-21T00:04:01.239Z,0.00
2019-02-21T00:05:01.235Z,0.00
2019-02-21T00:06:01.240Z,0.00
2019-02-21T00:07:01.255Z,0.00
2019-02-21T00:08:01.215Z,0.00
2019-02-21T00:09:01.193Z,0.00
2019-02-21T00:10:01.184Z,0.00
2019-02-21T00:11:01.169Z,0.00
2019-02-21T00:12:01.254Z,0.00
2019-02-21T00:13:01.165Z,0.00
2019-02-21T00:14:01.151Z,0.00
2019-02-21T00:15:01.137Z,0.00
2019-02-21T00:16:01.112Z,0.00
2019-02-21T00:17:01.101Z,0.00
2019-02-21T00:18:01.118Z,0.00
2019-02-21T00:19:01.090Z,0.00
2019-02-21T00:20:01.070Z,0.00
2019-02-21T00:21:01.071Z,0.00
2019-02-21T00:22:01.155Z,0.00
2019-02-21T00:23:01.035Z,0.00
2019-02-21T00:24:01.050Z,0.00
2019-02-21T00:25:01.032Z,0.00
2019-02-21T00:26:01.026Z,0.00
2019-02-21T00:27:01.000Z,0.00
2019-02-21T00:28:01.106Z,0.00
2019-02-21T00:29:00.985Z,0.00
2019-02-21T00:30:00.989Z,0.00
2019-02-21T00:31:00.957Z,0.00
2019-02-21T00:32:00.946Z,0.00
2019-02-21T00:33:00.989Z,0.00
2019-02-21T00:34:00.927Z,0.00
2019-02-21T00:35:01.018Z,0.00
2019-02-21T00:36:00.923Z,0.00
2019-02-21T00:37:00.902Z,0.00
2019-02-21T00:38:00.942Z,0.00
2019-02-21T00:39:00.881Z,0.00
2019-02-21T00:40:00.865Z,0.00
2019-02-21T00:41:00.873Z,0.00
2019-02-21T00:42:00.853Z,0.00
2019-02-21T00:43:00.857Z,0.00
2019-02-21T00:44:00.826Z,0.00
2019-02-21T00:45:00.810Z,0.00
2019-02-21T00:46:00.795Z,0.00
2019-02-21T00:47:00.779Z,0.00
2019-02-21T00:48:00.780Z,0.00
2019-02-21T00:49:01.107Z,0.00
2019-02-21T00:50:00.745Z,0.00
2019-02-21T00:51:00.740Z,0.00
2019-02-21T00:52:02.653Z,0.00
2019-02-21T00:53:00.722Z,0.00
2019-02-21T00:54:00.738Z,0.00
2019-02-21T00:55:00.699Z,0.00
2019-02-21T00:56:00.795Z,0.00
2019-02-21T00:57:00.691Z,0.00
2019-02-21T00:58:00.663Z,0.00
2019-02-21T00:59:00.673Z,0.00
2019-02-21T01:00:00.654Z,0.00
2019-02-21T01:01:00.624Z,0.00
2019-02-21T01:02:00.628Z,0.00
2019-02-21T01:03:00.620Z,0.00
2019-02-21T01:04:00.619Z,0.00
2019-02-21T01:05:00.585Z,0.00
2019-02-21T01:06:00.585Z,0.00
2019-02-21T01:07:00.653Z,0.00
2019-02-21T01:08:00.558Z,0.00
2019-02-21T01:09:00.565Z,0.00
2019-02-21T01:10:00.539Z,0.00
2019-02-21T01:11:00.524Z,0.00
2019-02-21T01:12:00.601Z,0.00
2019-02-21T01:13:00.512Z,0.00
2019-02-21T01:14:00.511Z,0.00
2019-02-21T01:15:00.622Z,0.00
2019-02-21T01:16:00.471Z,0.00
2019-02-21T01:17:00.471Z,0.00
2019-02-21T01:18:00.462Z,0.00
2019-02-21T01:19:00.463Z,0.00
2019-02-21T01:20:00.445Z,0.00
2019-02-21T01:21:00.417Z,0.00
2019-02-21T01:22:00.496Z,0.00
2019-02-21T01:23:00.426Z,0.00
2019-02-21T01:24:00.401Z,0.00
2019-02-21T01:25:00.369Z,0.00
2019-02-21T01:26:00.360Z,0.00
2019-02-21T01:27:00.405Z,0.00
2019-02-21T01:28:00.398Z,0.00
2019-02-21T01:29:00.343Z,0.00
2019-02-21T01:30:00.482Z,0.00
2019-02-21T01:31:00.307Z,0.00
2019-02-21T01:32:00.329Z,0.00
2019-02-21T01:33:00.290Z,0.00
2019-02-21T01:34:00.281Z,0.00
2019-02-21T01:35:00.347Z,0.00
2019-02-21T01:36:00.386Z,0.00
2019-02-21T01:37:00.261Z,0.00
2019-02-21T01:38:00.226Z,0.00
2019-02-21T01:39:00.237Z,0.00
2019-02-21T01:40:00.266Z,0.00
2019-02-21T01:41:00.219Z,0.00
2019-02-21T01:42:00.203Z,0.00
2019-02-21T01:43:00.176Z,0.00
2019-02-21T01:44:00.163Z,0.00
2019-02-21T01:45:00.220Z,0.00
2019-02-21T01:46:00.148Z,0.00
2019-02-21T01:47:00.228Z,0.00
2019-02-21T01:48:00.135Z,0.00
2019-02-21T01:49:00.117Z,0.00
2019-02-21T01:50:00.223Z,0.00
2019-02-21T01:51:00.102Z,0.00
2019-02-21T01:52:00.097Z,0.00
2019-02-21T01:53:00.097Z,0.00
2019-02-21T01:54:00.053Z,0.00
2019-02-21T01:55:00.054Z,0.00
2019-02-21T01:56:00.044Z,0.00
2019-02-21T01:57:00.027Z,0.00
2019-02-21T01:58:00.010Z,0.00
2019-02-21T01:59:00.023Z,0.00
2019-02-21T01:59:59.989Z,0.00
2019-02-21T02:01:07.877Z,0.00
2019-02-21T02:02:00.967Z,0.00
2019-02-21T02:02:59.957Z,0.00
2019-02-21T02:03:59.980Z,0.00
2019-02-21T02:04:59.954Z,0.00
2019-02-21T02:05:59.943Z,0.00
2019-02-21T02:06:59.922Z,0.00
2019-02-21T02:07:59.905Z,0.00
2019-02-21T02:08:59.899Z,0.00
2019-02-21T02:09:59.901Z,0.00
2019-02-21T02:10:59.876Z,0.00
2019-02-21T02:11:59.880Z,0.00
2019-02-21T02:12:59.856Z,0.00
2019-02-21T02:13:59.887Z,0.00
2019-02-21T02:14:59.937Z,0.00
2019-02-21T02:15:59.855Z,0.00
2019-02-21T02:16:59.835Z,0.00
2019-02-21T02:17:59.804Z,0.00
2019-02-21T02:18:59.875Z,0.00
2019-02-21T02:19:59.782Z,0.00
2019-02-21T02:20:59.791Z,0.00
2019-02-21T02:21:59.777Z,0.00
2019-02-21T02:22:59.750Z,0.00
2019-02-21T02:23:59.766Z,0.00
2019-02-21T02:24:59.764Z,0.00
2019-02-21T02:25:59.725Z,0.00
2019-02-21T02:26:59.818Z,0.00
2019-02-21T02:27:59.736Z,0.00
2019-02-21T02:28:59.689Z,0.00
2019-02-21T02:29:59.680Z,0.00
2019-02-21T02:30:59.671Z,0.00
2019-02-21T02:31:59.657Z,0.00
2019-02-21T02:32:59.665Z,0.00
2019-02-21T02:33:59.681Z,0.00
2019-02-21T02:34:59.987Z,0.00
2019-02-21T02:35:59.620Z,0.00
2019-02-21T02:36:59.608Z,0.00
2019-02-21T02:37:59.667Z,0.00
2019-02-21T02:38:59.615Z,0.00
2019-02-21T02:39:59.590Z,0.00
2019-02-21T02:40:59.575Z,0.00
2019-02-21T02:41:59.570Z,0.00
2019-02-21T02:42:59.571Z,0.00
2019-02-21T02:43:59.544Z,0.00
2019-02-21T02:44:59.551Z,0.00
2019-02-21T02:45:59.511Z,0.00
2019-02-21T02:46:59.501Z,0.00
2019-02-21T02:47:59.510Z,0.00
2019-02-21T02:48:59.497Z,0.00
2019-02-21T02:49:59.494Z,0.00
2019-02-21T02:50:59.531Z,0.00
2019-02-21T02:51:59.466Z,0.00
2019-02-21T02:52:59.447Z,0.00
2019-02-21T02:53:59.483Z,0.00
2019-02-21T02:54:59.429Z,0.00
2019-02-21T02:55:59.438Z,0.00
2019-02-21T02:56:59.400Z,0.00
2019-02-21T02:57:59.391Z,0.00
2019-02-21T02:58:59.383Z,0.00
2019-02-21T02:59:59.476Z,0.00
2019-02-21T03:00:59.366Z,0.00
2019-02-21T03:01:59.378Z,0.00
2019-02-21T03:02:59.330Z,0.00
2019-02-21T03:03:59.360Z,0.00
2019-02-21T03:04:59.327Z,0.00
2019-02-21T03:05:59.309Z,0.00
2019-02-21T03:06:59.320Z,0.00
2019-02-21T03:07:59.308Z,0.00
2019-02-21T03:08:59.280Z,0.00
2019-02-21T03:09:59.287Z,0.00
2019-02-21T03:10:59.264Z,0.00
2019-02-21T03:11:59.315Z,0.00
2019-02-21T03:12:59.259Z,0.00
2019-02-21T03:13:59.251Z,0.00
2019-02-21T03:14:59.252Z,0.00
2019-02-21T03:15:59.200Z,0.00
2019-02-21T03:16:59.187Z,0.00
2019-02-21T03:17:59.203Z,0.00
2019-02-21T03:18:59.179Z,0.00
2019-02-21T03:19:59.184Z,0.00
2019-02-21T03:20:59.151Z,0.00
2019-02-21T03:21:59.137Z,0.00
2019-02-21T03:22:59.190Z,0.00
2019-02-21T03:23:59.118Z,0.00
2019-02-21T03:24:59.109Z,0.00
2019-02-21T03:25:59.157Z,0.00
2019-02-21T03:26:59.171Z,0.00
2019-02-21T03:27:59.090Z,0.00
2019-02-21T03:28:59.078Z,0.00
2019-02-21T03:29:59.059Z,0.00
2019-02-21T03:30:59.045Z,0.00
2019-02-21T03:31:59.065Z,0.00
2019-02-21T03:32:59.027Z,0.00
2019-02-21T03:33:59.012Z,0.00
2019-02-21T03:34:59.039Z,0.00
2019-02-21T03:35:59.026Z,0.00
2019-02-21T03:36:59.009Z,0.00
2019-02-21T03:37:58.985Z,0.00
2019-02-21T03:38:59.188Z,0.00
2019-02-21T03:39:58.948Z,0.00
2019-02-21T03:40:58.974Z,0.00
2019-02-21T03:41:58.940Z,0.00
2019-02-21T03:42:58.921Z,0.00
2019-02-21T03:43:58.917Z,0.00
2019-02-21T03:44:58.907Z,0.00
2019-02-21T03:45:58.982Z,0.00
2019-02-21T03:46:58.877Z,0.00
2019-02-21T03:47:58.863Z,0.00
2019-02-21T03:48:58.923Z,0.00
2019-02-21T03:49:58.866Z,0.00
2019-02-21T03:50:58.855Z,0.00
2019-02-21T03:51:58.821Z,0.00
2019-02-21T03:52:58.819Z,0.00
2019-02-21T03:53:58.803Z,0.00
2019-02-21T03:54:58.802Z,0.00
2019-02-21T03:55:58.801Z,0.00
2019-02-21T03:56:58.785Z,0.00
2019-02-21T03:57:58.753Z,0.00
2019-02-21T03:58:58.783Z,0.00
2019-02-21T03:59:58.850Z,0.00
2019-02-21T04:00:58.725Z,0.00
2019-02-21T04:02:05.245Z,0.00
2019-02-21T04:02:59.726Z,0.00
2019-02-21T04:03:58.704Z,0.00
2019-02-21T04:04:58.697Z,0.00
2019-02-21T04:05:58.677Z,0.00
2019-02-21T04:06:58.668Z,0.00
2019-02-21T04:07:58.655Z,0.00
2019-02-21T04:08:58.667Z,0.00
2019-02-21T04:09:58.634Z,0.00
2019-02-21T04:10:58.622Z,0.00
2019-02-21T04:11:58.621Z,0.00
2019-02-21T04:12:58.612Z,0.00
2019-02-21T04:13:58.598Z,0.00
2019-02-21T04:14:58.684Z,0.00
2019-02-21T04:15:58.577Z,0.00
2019-02-21T04:16:58.553Z,0.00
2019-02-21T04:17:58.667Z,0.00
2019-02-21T04:18:58.545Z,0.00
2019-02-21T04:19:58.518Z,0.00
2019-02-21T04:20:58.547Z,0.00
2019-02-21T04:21:58.501Z,0.00
2019-02-21T04:22:58.568Z,0.00
2019-02-21T04:23:58.502Z,0.00
2019-02-21T04:24:58.463Z,0.00
2019-02-21T04:25:58.480Z,0.00
2019-02-21T04:26:58.461Z,0.00
2019-02-21T04:27:58.431Z,0.00
2019-02-21T04:28:58.435Z,0.00
2019-02-21T04:29:58.415Z,0.00
2019-02-21T04:30:58.426Z,0.00
2019-02-21T04:31:58.447Z,0.00
2019-02-21T04:32:58.389Z,0.00
2019-02-21T04:33:58.387Z,0.00
2019-02-21T04:34:58.372Z,0.00
2019-02-21T04:35:58.358Z,0.00
2019-02-21T04:36:58.441Z,0.00
2019-02-21T04:37:58.324Z,0.00
2019-02-21T04:38:58.320Z,0.00
2019-02-21T04:39:58.363Z,0.00
2019-02-21T04:40:58.294Z,0.00
2019-02-21T04:41:58.290Z,0.00
2019-02-21T04:42:58.320Z,0.00
2019-02-21T04:43:58.287Z,0.00
2019-02-21T04:44:58.247Z,0.00
2019-02-21T04:45:58.308Z,0.00
2019-02-21T04:46:58.244Z,0.00
2019-02-21T04:47:58.234Z,0.00
2019-02-21T04:48:58.219Z,0.00
2019-02-21T04:49:58.189Z,0.00
2019-02-21T04:50:58.303Z,0.00
2019-02-21T04:51:58.178Z,0.00
2019-02-21T04:52:58.237Z,0.00
2019-02-21T04:53:58.163Z,0.00
2019-02-21T04:54:58.159Z,0.00
2019-02-21T04:55:58.129Z,0.00
2019-02-21T04:56:58.145Z,0.00
2019-02-21T04:57:58.108Z,0.00
2019-02-21T04:58:58.107Z,0.00
2019-02-21T04:59:58.105Z,0.00
2019-02-21T05:00:58.176Z,0.00
2019-02-21T05:01:58.109Z,0.00
2019-02-21T05:02:58.079Z,0.00
2019-02-21T05:03:58.067Z,0.00
2019-02-21T05:04:58.037Z,0.00
2019-02-21T05:05:58.025Z,0.00
2019-02-21T05:06:58.058Z,0.00
2019-02-21T05:07:57.995Z,0.00
2019-02-21T05:08:58.068Z,0.00
2019-02-21T05:09:58.641Z,0.00
2019-02-21T05:10:57.983Z,0.00
2019-02-21T05:11:57.971Z,0.00
2019-02-21T05:12:57.943Z,0.00
2019-02-21T05:13:57.930Z,0.00
2019-02-21T05:14:57.925Z,0.00
2019-02-21T05:15:57.963Z,0.00
2019-02-21T05:17:00.536Z,0.00
2019-02-21T05:17:57.890Z,0.00
2019-02-21T05:18:57.896Z,0.00
2019-02-21T05:19:57.866Z,0.00
2019-02-21T05:20:57.860Z,0.00
2019-02-21T05:21:57.858Z,0.00
2019-02-21T05:22:58.073Z,0.00
2019-02-21T05:23:57.823Z,0.00
2019-02-21T05:24:57.827Z,0.00
2019-02-21T05:25:57.846Z,0.00
2019-02-21T05:26:57.814Z,0.00
2019-02-21T05:27:57.778Z,0.00
2019-02-21T05:28:57.773Z,0.00
2019-02-21T05:29:57.760Z,0.00
2019-02-21T05:30:57.791Z,0.00
2019-02-21T05:31:57.761Z,0.00
2019-02-21T05:32:57.729Z,0.00
2019-02-21T05:33:57.727Z,0.00
2019-02-21T05:34:57.720Z,0.00
2019-02-21T05:35:57.696Z,0.00
2019-02-21T05:36:57.756Z,0.00
2019-02-21T05:37:57.670Z,0.00
2019-02-21T05:38:57.674Z,0.00
2019-02-21T05:39:57.651Z,0.00
2019-02-21T05:40:57.639Z,0.00
2019-02-21T05:41:57.701Z,0.00
2019-02-21T05:42:57.689Z,0.00
2019-02-21T05:43:57.664Z,0.00
2019-02-21T05:44:59.518Z,0.00
2019-02-21T05:45:57.594Z,0.00
2019-02-21T05:46:57.604Z,0.00
2019-02-21T05:47:57.565Z,0.00
2019-02-21T05:48:57.576Z,0.00
2019-02-21T05:49:57.545Z,0.00
2019-02-21T05:50:57.533Z,0.00
2019-02-21T05:51:57.661Z,0.00
2019-02-21T05:52:57.566Z,0.00
2019-02-21T05:53:57.510Z,0.00
2019-02-21T05:54:57.495Z,0.00
2019-02-21T05:55:57.489Z,0.00
2019-02-21T05:56:57.564Z,0.00
2019-02-21T05:57:57.469Z,0.00
2019-02-21T05:58:57.477Z,0.00
2019-02-21T05:59:57.502Z,0.00
2019-02-21T06:00:57.441Z,0.00
2019-02-21T06:01:57.424Z,0.00
2019-02-21T06:02:57.432Z,0.00
2019-02-21T06:03:57.397Z,0.00
2019-02-21T06:04:57.435Z,0.00
2019-02-21T06:05:57.466Z,0.00
2019-02-21T06:06:57.370Z,0.00
2019-02-21T06:07:57.494Z,4.00
2019-02-21T06:08:57.582Z,4.00
2019-02-21T06:09:57.411Z,0.00
2019-02-21T06:10:57.374Z,4.00
2019-02-21T06:11:57.357Z,4.00
2019-02-21T06:12:59.937Z,4.00
2019-02-21T06:13:57.290Z,8.00
2019-02-21T06:14:57.309Z,8.00
2019-02-21T06:15:57.285Z,8.00
2019-02-21T06:16:57.281Z,12.00
2019-02-21T06:17:57.336Z,16.00
2019-02-21T06:18:57.246Z,20.00
2019-02-21T06:19:57.247Z,20.00
2019-02-21T06:20:57.796Z,24.00
2019-02-21T06:22:09.723Z,28.00
2019-02-21T06:22:58.219Z,32.00
2019-02-21T06:23:57.193Z,36.00
2019-02-21T06:24:57.180Z,40.00
2019-02-21T06:25:59.282Z,48.00
2019-02-21T06:26:57.158Z,56.00
2019-02-21T06:27:58.521Z,64.00
2019-02-21T06:28:57.137Z,72.00
2019-02-21T06:29:57.265Z,80.00
2019-02-21T06:30:57.118Z,88.00
2019-02-21T06:31:57.120Z,96.00
2019-02-21T06:33:04.596Z,104.00
2019-02-21T06:33:58.096Z,112.00
2019-02-21T06:34:57.078Z,120.00
2019-02-21T06:35:57.070Z,132.00
2019-02-21T06:36:57.063Z,140.00
2019-02-21T06:37:57.068Z,148.00
2019-02-21T06:38:57.046Z,160.00
2019-02-21T06:39:57.094Z,168.00
2019-02-21T06:40:57.028Z,176.00
2019-02-21T06:41:59.894Z,188.00
2019-02-21T06:42:57.028Z,196.00
2019-02-21T06:43:57.086Z,208.00
2019-02-21T06:44:56.976Z,224.00
2019-02-21T06:45:58.020Z,240.00
2019-02-21T06:46:56.977Z,268.00
2019-02-21T06:47:56.986Z,292.00
2019-02-21T06:48:56.948Z,324.00
2019-02-21T06:49:58.655Z,352.00
2019-02-21T06:50:56.918Z,376.00
2019-02-21T06:51:56.907Z,404.00
2019-02-21T06:52:56.888Z,432.00
2019-02-21T06:53:56.931Z,464.00
2019-02-21T06:54:56.881Z,500.00
2019-02-21T06:55:56.860Z,528.00
2019-02-21T06:56:56.848Z,548.00
2019-02-21T06:57:56.853Z,572.00
2019-02-21T06:58:56.826Z,592.00
2019-02-21T06:59:56.904Z,620.00
2019-02-21T07:00:56.811Z,652.00
2019-02-21T07:01:56.803Z,680.00
2019-02-21T07:02:56.801Z,708.00
2019-02-21T07:03:56.773Z,744.00
2019-02-21T07:04:56.900Z,784.00
2019-02-21T07:05:56.807Z,816.00
2019-02-21T07:06:57.010Z,860.00
2019-02-21T07:07:56.758Z,896.00
2019-02-21T07:08:56.724Z,936.00
2019-02-21T07:09:56.718Z,968.00
2019-02-21T07:11:05.830Z,1004.00
2019-02-21T07:11:57.735Z,1032.00
2019-02-21T07:12:56.706Z,1052.00
2019-02-21T07:13:56.671Z,1080.00
2019-02-21T07:14:56.663Z,1108.00
2019-02-21T07:15:58.450Z,1136.00
2019-02-21T07:16:56.644Z,1148.00
2019-02-21T07:17:56.728Z,1140.00
2019-02-21T07:18:56.616Z,1124.00
2019-02-21T07:19:56.613Z,1132.00
2019-02-21T07:20:56.600Z,1160.00
2019-02-21T07:21:56.584Z,1180.00
2019-02-21T07:22:56.592Z,1196.00
2019-02-21T07:23:56.634Z,1216.00
2019-02-21T07:24:56.593Z,1228.00
2019-02-21T07:25:56.549Z,1248.00
2019-02-21T07:26:56.533Z,1276.00
2019-02-21T07:27:58.278Z,1316.00
2019-02-21T07:28:58.311Z,1360.00
2019-02-21T07:29:56.578Z,1424.00
2019-02-21T07:30:56.488Z,1492.00
2019-02-21T07:31:56.484Z,1552.00
2019-02-21T07:32:56.519Z,1576.00
2019-02-21T07:33:56.455Z,1600.00
2019-02-21T07:34:56.445Z,1616.00
2019-02-21T07:35:56.465Z,1664.00
2019-02-21T07:36:56.428Z,1704.00
2019-02-21T07:37:56.429Z,1728.00
2019-02-21T07:39:08.463Z,1768.00
2019-02-21T07:39:57.392Z,1816.00
2019-02-21T07:40:56.422Z,1876.00
2019-02-21T07:41:56.393Z,1956.00
2019-02-21T07:42:58.635Z,2036.00
2019-02-21T07:43:56.433Z,2136.00
2019-02-21T07:44:59.526Z,2208.00
2019-02-21T07:45:56.327Z,2264.00
2019-02-21T07:46:56.360Z,2300.00
2019-02-21T07:47:56.310Z,2300.00
2019-02-21T07:48:56.346Z,2308.00
2019-02-21T07:49:56.325Z,2272.00
2019-02-21T07:50:56.286Z,2240.00
2019-02-21T07:51:56.319Z,2188.00
2019-02-21T07:53:02.469Z,2168.00
2019-02-21T07:53:57.259Z,2180.00
2019-02-21T07:55:01.923Z,2136.00
2019-02-21T07:55:57.215Z,2052.00
2019-02-21T07:56:56.210Z,1932.00
2019-02-21T07:57:56.194Z,1836.00
2019-02-21T07:58:57.675Z,1812.00
2019-02-21T07:59:56.265Z,1812.00
2019-02-21T08:00:56.166Z,1888.00
2019-02-21T08:01:56.158Z,2048.00
2019-02-21T08:02:56.140Z,2140.00
2019-02-21T08:03:56.134Z,2024.00
2019-02-21T08:04:56.174Z,2124.00
2019-02-21T08:05:56.130Z,2120.00
2019-02-21T08:06:56.126Z,2040.00
2019-02-21T08:07:56.093Z,2024.00
2019-02-21T08:08:56.096Z,2044.00
2019-02-21T08:09:56.072Z,2312.00
2019-02-21T08:10:56.090Z,2404.00
2019-02-21T08:11:56.049Z,2544.00
2019-02-21T08:12:56.034Z,2644.00
2019-02-21T08:13:56.070Z,2740.00
2019-02-21T08:14:56.371Z,2936.00
2019-02-21T08:15:56.003Z,3000.00
2019-02-21T08:16:56.216Z,2912.00
2019-02-21T08:17:55.981Z,3272.00
2019-02-21T08:18:55.994Z,3560.00
2019-02-21T08:20:07.508Z,3808.00
2019-02-21T08:20:57.038Z,3648.00
2019-02-21T08:21:55.938Z,3924.00
2019-02-21T08:22:55.925Z,3972.00
2019-02-21T08:23:55.933Z,3832.00
2019-02-21T08:24:56.580Z,3800.00
2019-02-21T08:25:55.948Z,3312.00
2019-02-21T08:26:55.887Z,2964.00
2019-02-21T08:27:55.876Z,2756.00
2019-02-21T08:28:55.864Z,2436.00
2019-02-21T08:29:55.879Z,2128.00
2019-02-21T08:30:57.947Z,1956.00
2019-02-21T08:31:55.930Z,1868.00
2019-02-21T08:32:55.819Z,1960.00
2019-02-21T08:33:58.695Z,2096.00
2019-02-21T08:34:55.800Z,2264.00
2019-02-21T08:35:57.801Z,2528.00
2019-02-21T08:36:55.780Z,2816.00
2019-02-21T08:37:55.801Z,3132.00
2019-02-21T08:38:55.803Z,3528.00
2019-02-21T08:39:55.746Z,3956.00
2019-02-21T08:40:57.156Z,4384.00
2019-02-21T08:41:55.727Z,4780.00
2019-02-21T08:42:55.726Z,5168.00
2019-02-21T08:43:57.411Z,5260.00
2019-02-21T08:44:55.739Z,5404.00
2019-02-21T08:45:57.464Z,5620.00
2019-02-21T08:46:55.669Z,5724.00
2019-02-21T08:47:55.661Z,5680.00
2019-02-21T08:48:55.657Z,5588.00
2019-02-21T08:49:55.661Z,5476.00
2019-02-21T08:50:55.647Z,5300.00
2019-02-21T08:51:55.614Z,5192.00
2019-02-21T08:52:55.796Z,5156.00
2019-02-21T08:53:55.606Z,5004.00
2019-02-21T08:55:00.086Z,4860.00
2019-02-21T08:55:56.587Z,4772.00
2019-02-21T08:56:55.588Z,4700.00
2019-02-21T08:57:55.552Z,4600.00
2019-02-21T08:58:55.560Z,4572.00
2019-02-21T08:59:55.537Z,4580.00
2019-02-21T09:00:55.517Z,4608.00
2019-02-21T09:01:55.508Z,4652.00
2019-02-21T09:02:55.623Z,4624.00
2019-02-21T09:03:55.488Z,4588.00
2019-02-21T09:04:55.490Z,4600.00
2019-02-21T09:05:55.476Z,4644.00
2019-02-21T09:06:55.452Z,4772.00
2019-02-21T09:07:55.444Z,4976.00
2019-02-21T09:08:55.466Z,5348.00
2019-02-21T09:09:55.436Z,5880.00
2019-02-21T09:10:55.410Z,6408.00
2019-02-21T09:11:55.416Z,6644.00
2019-02-21T09:12:55.389Z,6560.00
2019-02-21T09:13:55.939Z,6216.00
2019-02-21T09:14:55.418Z,5708.00
2019-02-21T09:15:56.013Z,5124.00
2019-02-21T09:16:55.345Z,4560.00
2019-02-21T09:17:55.334Z,4064.00
2019-02-21T09:18:55.323Z,3704.00
2019-02-21T09:19:55.329Z,3396.00
2019-02-21T09:20:55.345Z,3132.00
2019-02-21T09:21:55.349Z,2864.00
2019-02-21T09:22:55.278Z,2532.00
2019-02-21T09:23:56.712Z,2276.00
2019-02-21T09:24:55.278Z,2168.00
2019-02-21T09:25:55.244Z,2168.00
2019-02-21T09:26:57.094Z,2204.00
2019-02-21T09:27:55.249Z,2268.00
2019-02-21T09:28:55.221Z,2276.00
2019-02-21T09:29:55.210Z,2304.00
2019-02-21T09:30:55.285Z,2392.00
2019-02-21T09:31:55.181Z,2556.00
2019-02-21T09:32:55.171Z,2472.00
2019-02-21T09:33:55.217Z,2356.00
2019-02-21T09:34:55.156Z,2392.00
2019-02-21T09:35:56.856Z,2600.00
2019-02-21T09:36:55.146Z,2796.00
2019-02-21T09:37:55.117Z,2980.00
2019-02-21T09:38:55.106Z,3388.00
2019-02-21T09:39:55.148Z,3892.00
2019-02-21T09:40:55.087Z,4220.00
2019-02-21T09:41:55.069Z,4476.00
2019-02-21T09:42:55.070Z,4932.00
2019-02-21T09:43:55.047Z,5592.00
2019-02-21T09:44:55.408Z,6000.00
2019-02-21T09:45:55.030Z,6412.00
2019-02-21T09:46:55.018Z,6156.00
2019-02-21T09:47:55.040Z,5796.00
2019-02-21T09:48:55.008Z,5880.00
2019-02-21T09:49:56.511Z,5400.00
2019-02-21T09:50:54.992Z,4756.00
2019-02-21T09:51:54.961Z,4824.00
2019-02-21T09:52:54.952Z,4908.00
2019-02-21T09:53:54.943Z,5008.00
2019-02-21T09:54:54.962Z,5264.00
2019-02-21T09:55:54.940Z,5316.00
2019-02-21T09:56:54.930Z,5176.00
2019-02-21T09:57:54.896Z,5288.00
2019-02-21T09:58:54.886Z,5432.00
2019-02-21T09:59:54.960Z,5340.00
2019-02-21T10:00:54.944Z,5304.00
2019-02-21T10:01:57.449Z,5488.00
2019-02-21T10:02:56.737Z,5812.00
2019-02-21T10:03:57.296Z,6012.00
2019-02-21T10:05:04.504Z,6136.00
2019-02-21T10:05:55.816Z,6388.00
2019-02-21T10:06:54.846Z,6672.00
2019-02-21T10:07:54.805Z,6652.00
2019-02-21T10:08:54.782Z,6684.00
2019-02-21T10:09:54.768Z,6844.00
2019-02-21T10:10:54.781Z,6964.00
2019-02-21T10:11:54.747Z,7188.00
2019-02-21T10:12:54.761Z,7372.00
2019-02-21T10:13:54.727Z,7668.00
2019-02-21T10:14:54.741Z,7968.00
2019-02-21T10:15:54.708Z,7844.00
2019-02-21T10:16:54.710Z,7460.00
2019-02-21T10:17:54.681Z,7188.00
2019-02-21T10:18:54.707Z,7232.00
2019-02-21T10:19:54.666Z,7280.00
2019-02-21T10:20:54.678Z,6884.00
2019-02-21T10:21:54.639Z,6236.00
2019-02-21T10:22:54.640Z,5412.00
2019-02-21T10:23:56.614Z,4636.00
2019-02-21T10:24:56.923Z,4040.00
2019-02-21T10:25:54.621Z,3692.00
2019-02-21T10:26:54.603Z,3516.00
2019-02-21T10:27:54.579Z,3400.00
2019-02-21T10:28:54.568Z,3304.00
2019-02-21T10:29:54.557Z,3292.00
2019-02-21T10:30:54.595Z,3252.00
2019-02-21T10:31:54.560Z,3348.00
2019-02-21T10:32:54.539Z,3560.00
2019-02-21T10:33:54.509Z,4004.00
2019-02-21T10:34:54.500Z,4476.00
2019-02-21T10:35:54.488Z,4860.00
2019-02-21T10:36:54.523Z,4988.00
2019-02-21T10:37:54.500Z,4832.00
2019-02-21T10:38:54.544Z,4528.00
2019-02-21T10:39:54.445Z,4156.00
2019-02-21T10:40:54.455Z,3852.00
2019-02-21T10:41:54.431Z,3608.00
2019-02-21T10:42:54.460Z,3364.00
2019-02-21T10:43:54.422Z,3032.00
2019-02-21T10:44:54.414Z,2684.00
2019-02-21T10:45:54.396Z,2404.00
2019-02-21T10:46:54.371Z,2308.00
2019-02-21T10:47:54.391Z,2408.00
2019-02-21T10:48:54.349Z,2488.00
2019-02-21T10:49:54.383Z,2372.00
2019-02-21T10:50:54.343Z,2304.00
2019-02-21T10:51:54.384Z,2636.00
2019-02-21T10:52:54.309Z,3364.00
2019-02-21T10:53:54.344Z,4288.00
2019-02-21T10:54:54.307Z,4704.00
2019-02-21T10:55:54.296Z,4880.00
2019-02-21T10:56:54.262Z,4768.00
2019-02-21T10:57:54.253Z,4396.00
2019-02-21T10:58:54.242Z,4068.00
2019-02-21T10:59:54.475Z,3768.00
2019-02-21T11:00:54.220Z,3460.00
2019-02-21T11:01:54.233Z,3464.00
2019-02-21T11:02:54.197Z,3900.00
2019-02-21T11:03:54.193Z,4116.00
2019-02-21T11:04:55.171Z,3792.00
2019-02-21T11:05:54.202Z,3336.00
2019-02-21T11:06:54.155Z,3196.00
2019-02-21T11:07:54.170Z,3168.00
2019-02-21T11:08:54.131Z,3108.00
2019-02-21T11:09:54.129Z,2960.00
2019-02-21T11:10:54.112Z,2748.00
2019-02-21T11:11:54.127Z,2552.00
2019-02-21T11:12:54.089Z,2576.00
2019-02-21T11:13:54.099Z,2688.00
2019-02-21T11:14:54.069Z,2788.00
2019-02-21T11:15:54.060Z,2628.00
2019-02-21T11:16:54.046Z,2596.00
2019-02-21T11:17:54.049Z,2552.00
2019-02-21T11:18:54.028Z,2456.00
2019-02-21T11:19:54.034Z,2872.00
2019-02-21T11:20:54.004Z,2900.00
2019-02-21T11:21:53.993Z,2712.00
2019-02-21T11:22:53.982Z,2736.00
2019-02-21T11:23:53.974Z,2740.00
2019-02-21T11:24:54.016Z,2672.00
2019-02-21T11:25:53.968Z,2836.00
2019-02-21T11:26:53.939Z,2992.00
2019-02-21T11:27:53.929Z,3296.00
2019-02-21T11:28:53.923Z,3684.00
2019-02-21T11:29:53.908Z,3896.00
2019-02-21T11:30:53.955Z,4028.00
2019-02-21T11:31:53.909Z,4292.00
2019-02-21T11:32:53.973Z,4748.00
2019-02-21T11:33:53.866Z,5276.00
2019-02-21T11:34:53.854Z,5804.00
2019-02-21T11:35:53.846Z,6020.00
2019-02-21T11:36:53.901Z,6272.00
2019-02-21T11:37:53.835Z,6380.00
2019-02-21T11:38:53.812Z,6292.00
2019-02-21T11:39:53.810Z,6104.00
2019-02-21T11:40:53.797Z,5924.00
2019-02-21T11:41:53.796Z,5820.00
2019-02-21T11:42:53.803Z,6068.00
2019-02-21T11:43:53.754Z,6260.00
2019-02-21T11:44:53.747Z,6384.00
2019-02-21T11:45:57.213Z,6496.00
2019-02-21T11:46:53.751Z,6488.00
2019-02-21T11:47:53.712Z,6592.00
2019-02-21T11:48:53.724Z,6744.00
2019-02-21T11:49:53.689Z,6780.00
2019-02-21T11:50:53.681Z,6924.00
2019-02-21T11:51:53.672Z,6932.00
2019-02-21T11:52:53.675Z,6456.00
2019-02-21T11:53:53.651Z,6184.00
2019-02-21T11:54:53.675Z,6120.00
2019-02-21T11:55:53.626Z,6128.00
2019-02-21T11:56:53.616Z,6172.00
2019-02-21T11:57:53.612Z,5928.00
2019-02-21T11:58:53.606Z,5592.00
2019-02-21T11:59:53.585Z,5452.00
2019-02-21T12:00:53.629Z,6188.00
2019-02-21T12:01:53.578Z,6460.00
2019-02-21T12:02:53.549Z,6464.00
2019-02-21T12:03:53.546Z,6748.00
2019-02-21T12:04:53.528Z,7020.00
2019-02-21T12:05:53.521Z,7200.00
2019-02-21T12:06:53.542Z,7656.00
2019-02-21T12:07:53.540Z,7452.00
2019-02-21T12:08:53.486Z,6924.00
2019-02-21T12:09:53.477Z,6364.00
2019-02-21T12:10:53.466Z,5856.00
2019-02-21T12:11:53.471Z,6016.00
2019-02-21T12:12:53.470Z,5548.00
2019-02-21T12:13:53.445Z,5596.00
2019-02-21T12:14:53.443Z,5760.00
2019-02-21T12:15:53.408Z,6020.00
2019-02-21T12:16:53.411Z,6228.00
2019-02-21T12:17:53.388Z,6544.00
2019-02-21T12:18:53.375Z,6548.00
2019-02-21T12:19:53.364Z,6496.00
2019-02-21T12:20:53.383Z,6224.00
2019-02-21T12:21:59.024Z,6008.00
2019-02-21T12:22:54.331Z,5976.00
2019-02-21T12:23:53.396Z,6260.00
2019-02-21T12:24:53.310Z,7008.00
2019-02-21T12:25:53.302Z,7380.00
2019-02-21T12:26:53.307Z,7364.00
2019-02-21T12:27:53.314Z,7532.00
2019-02-21T12:28:53.270Z,7740.00
2019-02-21T12:29:53.258Z,7704.00
2019-02-21T12:30:53.246Z,6964.00
2019-02-21T12:31:53.255Z,5984.00
2019-02-21T12:32:53.224Z,5344.00
2019-02-21T12:33:53.249Z,5352.00
2019-02-21T12:34:53.214Z,5420.00
2019-02-21T12:35:53.192Z,5452.00
2019-02-21T12:36:53.196Z,5484.00
2019-02-21T12:37:53.169Z,5408.00
2019-02-21T12:38:53.163Z,5060.00
2019-02-21T12:39:53.181Z,4740.00
2019-02-21T12:40:53.138Z,4340.00
2019-02-21T12:41:53.130Z,4356.00